Time;durP1;ratioP1;P1;durP2;ratioP2;P2;SDS_P1;SDS_P2;PMS_P1;PMS_P2;Temp;Humidity;BMP_temperature;BMP_pressure;BME280_temperature;BME280_humidity;BME280_pressure;Samples;Min_cycle;Max_cycle;Signal;HPM_P1;HPM_P2
2024/01/11 00:00:59;;;;;;;32.17;24.17;;;;;;;-5.74;97.56;103232.28;5015581;28;20025;-80
2024/01/11 00:03:24;;;;;;;36.72;23.80;;;;;;;-5.78;98.06;103233.81;5015446;28;20036;-80
2024/01/11 00:05:50;;;;;;;32.10;23.58;;;;;;;-5.81;98.86;103238.69;5055528;23;20056;-80
2024/01/11 00:08:15;;;;;;;34.15;24.80;;;;;;;-5.87;99.25;103236.78;5055234;28;20033;-80
2024/01/11 00:10:40;;;;;;;33.22;23.45;;;;;;;-5.88;100.00;103242.63;5054755;28;20024;-80
2024/01/11 00:13:06;;;;;;;36.28;24.50;;;;;;;-5.91;100.00;103236.59;5055111;28;20033;-80
2024/01/11 00:15:31;;;;;;;32.35;24.25;;;;;;;-6.01;99.88;103224.44;5037138;28;20025;-80
2024/01/11 00:17:56;;;;;;;35.65;24.25;;;;;;;-5.90;99.81;103240.84;5054923;28;20025;-80
2024/01/11 00:20:22;;;;;;;32.95;23.42;;;;;;;-6.01;100.00;103215.22;5055040;28;20032;-80
2024/01/11 00:22:47;;;;;;;35.70;24.00;;;;;;;-5.92;100.00;103233.22;5054747;28;20025;-81
2024/01/11 00:25:12;;;;;;;34.42;24.25;;;;;;;-5.86;100.00;103240.16;5054973;28;20025;-82
2024/01/11 00:27:38;;;;;;;33.78;24.42;;;;;;;-5.93;100.00;103235.69;5054861;28;20067;-81
2024/01/11 00:30:04;;;;;;;34.63;24.10;;;;;;;-5.97;100.00;103232.19;5037255;28;20063;-80
2024/01/11 00:32:29;;;;;;;31.63;23.88;;;;;;;-5.97;100.00;103237.22;5054546;28;20025;-80
2024/01/11 00:34:54;;;;;;;34.10;25.25;;;;;;;-6.00;100.00;103236.22;5054494;28;20036;-81
2024/01/11 00:37:20;;;;;;;35.67;25.25;;;;;;;-6.14;100.00;103221.38;5054631;28;20040;-80
2024/01/11 00:39:47;;;;;;;34.88;25.30;;;;;;;-6.08;100.00;103234.25;5054695;28;20044;-80
2024/01/11 00:42:13;;;;;;;33.78;25.15;;;;;;;-6.07;100.00;103230.94;5054402;28;20021;-81
2024/01/11 00:44:38;;;;;;;33.85;23.73;;;;;;;-6.20;100.00;103211.03;5054538;28;20033;-80
2024/01/11 00:47:03;;;;;;;34.92;23.83;;;;;;;-6.02;100.00;103235.28;5054040;28;20166;-80
2024/01/11 00:49:29;;;;;;;34.20;23.77;;;;;;;-6.01;100.00;103237.00;5053770;28;20029;-80
2024/01/11 00:51:54;;;;;;;31.45;23.13;;;;;;;-6.29;100.00;103200.63;5054226;28;20052;-80
2024/01/11 00:54:20;;;;;;;35.05;25.15;;;;;;;-6.07;100.00;103240.13;5036850;28;20029;-80
2024/01/11 00:56:45;;;;;;;36.20;24.08;;;;;;;-6.15;100.00;103238.94;5036681;28;20025;-80
2024/01/11 00:59:10;;;;;;;33.78;22.42;;;;;;;-6.11;100.00;103230.72;5054268;28;20385;-81
2024/01/11 01:01:36;;;;;;;34.20;24.27;;;;;;;-6.10;100.00;103233.28;5054191;28;20457;-79
2024/01/11 01:04:01;;;;;;;36.38;25.90;;;;;;;-6.26;100.00;103209.94;5053836;28;20036;-79
2024/01/11 01:06:27;;;;;;;35.95;25.60;;;;;;;-6.43;100.00;103197.47;5054202;28;20036;-79
2024/01/11 01:08:52;;;;;;;34.40;24.75;;;;;;;-6.28;100.00;103224.09;5054144;28;20270;-80
2024/01/11 01:11:17;;;;;;;34.85;25.50;;;;;;;-6.24;100.00;103236.88;5054313;28;20061;-80
2024/01/11 01:13:43;;;;;;;36.03;25.88;;;;;;;-6.20;100.00;103248.75;5054002;28;20099;-80
2024/01/11 01:16:08;;;;;;;37.33;26.67;;;;;;;-6.22;100.00;103252.00;5054198;28;20055;-80
2024/01/11 01:18:33;;;;;;;36.58;25.55;;;;;;;-6.24;100.00;103246.06;5053551;28;20032;-80
2024/01/11 01:20:59;;;;;;;36.50;25.55;;;;;;;-6.30;100.00;103251.66;5036166;28;20074;-80
2024/01/11 01:23:24;;;;;;;33.80;23.08;;;;;;;-6.37;100.00;103257.22;5053666;28;20040;-79
2024/01/11 01:25:49;;;;;;;37.85;25.38;;;;;;;-6.41;100.00;103267.91;5053718;28;20035;-79
2024/01/11 01:28:18;;;;;;;36.95;24.50;;;;;;;-6.47;100.00;103268.50;5053745;28;20060;-79
2024/01/11 01:30:43;;;;;;;37.97;26.08;;;;;;;-6.69;100.00;103230.59;5053708;28;20025;-78
2024/01/11 01:33:08;;;;;;;35.38;25.08;;;;;;;-6.55;100.00;103268.94;5053230;28;20370;-79
2024/01/11 01:35:34;;;;;;;36.97;26.45;;;;;;;-6.87;100.00;103208.03;5053650;28;20036;-79
2024/01/11 01:38:00;;;;;;;36.47;26.42;;;;;;;-6.58;100.00;103268.81;5035650;28;20064;-79
2024/01/11 01:40:25;;;;;;;34.45;26.75;;;;;;;-6.70;100.00;103252.34;5053640;28;20068;-78
2024/01/11 01:42:58;;;;;;;37.97;27.33;;;;;;;-6.58;100.00;103284.75;5053215;28;20033;-78
2024/01/11 01:45:23;;;;;;;39.80;26.20;;;;;;;-6.64;100.00;103269.38;5053353;28;20028;-79
2024/01/11 01:47:48;;;;;;;37.20;25.52;;;;;;;-6.73;100.00;103267.28;5053328;28;20082;-79
2024/01/11 01:50:14;;;;;;;37.40;26.58;;;;;;;-6.95;100.00;103232.78;5053558;28;20024;-79
2024/01/11 01:52:42;;;;;;;41.55;25.50;;;;;;;-6.59;100.00;103289.69;5035393;28;20455;-80
2024/01/11 01:55:10;;;;;;;39.75;26.38;;;;;;;-6.91;100.00;103237.94;5035361;28;20032;-78
2024/01/11 01:57:36;;;;;;;40.35;26.85;;;;;;;-6.61;100.00;103287.09;5035170;28;20036;-78
2024/01/11 02:00:02;;;;;;;37.85;27.17;;;;;;;-6.65;100.00;103286.09;5034472;28;20410;-79
2024/01/11 02:02:30;;;;;;;39.25;28.27;;;;;;;-6.61;100.00;103273.69;5052974;28;20037;-79
2024/01/11 02:04:57;;;;;;;37.70;25.73;;;;;;;-6.65;100.00;103288.63;5052989;28;20073;-78
2024/01/11 02:07:23;;;;;;;36.65;26.50;;;;;;;-6.71;100.00;103273.25;5053144;28;20024;-79
2024/01/11 02:09:49;;;;;;;39.97;27.65;;;;;;;-6.73;100.00;103277.34;5052854;28;20021;-79
2024/01/11 02:12:17;;;;;;;38.63;28.85;;;;;;;-7.03;100.00;103228.16;5051895;28;20048;-79
2024/01/11 02:14:44;;;;;;;39.72;28.23;;;;;;;-6.80;100.00;103284.50;5052728;28;20021;-80
2024/01/11 02:17:09;;;;;;;40.05;27.75;;;;;;;-6.94;100.00;103272.16;5053021;28;20048;-80
2024/01/11 02:19:36;;;;;;;39.58;26.20;;;;;;;-7.09;100.00;103246.28;5034857;28;20078;-79
2024/01/11 02:22:08;;;;;;;35.05;26.63;;;;;;;-6.99;100.00;103283.63;5052731;28;20021;-80
2024/01/11 02:24:33;;;;;;;39.15;27.83;;;;;;;-7.00;100.00;103283.56;5053030;28;20381;-80
2024/01/11 02:27:03;;;;;;;39.80;27.50;;;;;;;-7.00;100.00;103288.56;5052862;28;20021;-80
2024/01/11 02:29:29;;;;;;;38.50;28.15;;;;;;;-6.96;100.00;103285.44;5052433;28;20106;-80
2024/01/11 02:31:55;;;;;;;37.47;26.95;;;;;;;-7.29;100.00;103235.28;5052666;28;20036;-80
2024/01/11 02:34:23;;;;;;;38.55;28.73;;;;;;;-7.12;100.00;103260.38;5034932;28;20071;-79
2024/01/11 02:36:49;;;;;;;40.25;27.90;;;;;;;-6.94;100.00;103287.22;5052800;28;20048;-79
2024/01/11 02:39:16;;;;;;;41.63;29.30;;;;;;;-7.33;100.00;103223.41;5034947;28;20025;-79
2024/01/11 02:41:43;;;;;;;40.28;27.80;;;;;;;-7.33;100.00;103243.47;5034494;28;20439;-80
2024/01/11 02:44:08;;;;;;;40.83;28.52;;;;;;;-7.04;100.00;103285.06;5034410;28;20119;-79
2024/01/11 02:46:33;;;;;;;40.22;28.65;;;;;;;-7.22;100.00;103271.59;5052625;28;20116;-79
2024/01/11 02:48:59;;;;;;;41.67;29.08;;;;;;;-7.11;100.00;103285.53;5052635;28;20033;-80
2024/01/11 02:51:24;;;;;;;37.05;28.00;;;;;;;-7.39;100.00;103240.66;5052622;28;20088;-79
2024/01/11 02:53:49;;;;;;;37.30;27.15;;;;;;;-7.10;100.00;103283.91;5052309;28;20029;-79
2024/01/11 02:56:15;;;;;;;40.55;27.33;;;;;;;-7.08;100.00;103288.22;5052622;28;20029;-79
2024/01/11 02:58:40;;;;;;;42.75;28.20;;;;;;;-7.39;100.00;103234.78;5050583;28;20037;-79
2024/01/11 03:01:06;;;;;;;40.63;28.95;;;;;;;-7.02;100.00;103285.13;5052352;28;20028;-79
2024/01/11 03:03:31;;;;;;;39.90;28.48;;;;;;;-7.27;100.00;103227.88;5052160;28;20033;-80
2024/01/11 03:05:56;;;;;;;41.20;29.30;;;;;;;-6.96;100.00;103287.94;5052083;28;20128;-79
2024/01/11 03:08:22;;;;;;;39.33;28.48;;;;;;;-6.94;100.00;103279.69;5034474;28;20028;-80
2024/01/11 03:10:47;;;;;;;39.63;28.42;;;;;;;-7.10;100.00;103257.13;5052611;28;20032;-80
2024/01/11 03:13:13;;;;;;;41.55;28.55;;;;;;;-6.98;100.00;103281.97;5056394;28;20438;-80
2024/01/11 03:15:38;;;;;;;37.33;27.88;;;;;;;-7.33;100.00;103230.94;5038333;28;20431;-79
2024/01/11 03:18:04;;;;;;;44.50;28.15;;;;;;;-7.07;100.00;103289.09;5055025;28;20025;-79
2024/01/11 03:20:29;;;;;;;39.10;27.38;;;;;;;-7.25;100.00;103246.38;5037916;28;20040;-80
2024/01/11 03:28:05;;;;;;;40.97;28.42;;;;;;;-7.23;100.00;103252.31;5548761;23;20050;-80
2024/01/11 03:30:33;;;;;;;39.92;28.60;;;;;;;-7.24;100.00;103258.13;4998349;28;20058;-80
2024/01/11 03:32:58;;;;;;;39.75;28.38;;;;;;;-7.07;100.00;103277.38;5015015;28;20536;-80
2024/01/11 03:35:24;;;;;;;41.58;28.45;;;;;;;-7.08;100.00;103273.16;5016245;28;20026;-80
2024/01/11 03:37:51;;;;;;;41.05;27.42;;;;;;;-7.18;100.00;103260.91;5016388;28;20017;-81
2024/01/11 03:40:16;;;;;;;40.90;28.05;;;;;;;-7.17;100.00;103285.25;4998701;28;20022;-81
2024/01/11 03:42:42;;;;;;;38.13;27.38;;;;;;;-7.29;100.00;103250.34;5016061;28;20032;-81
2024/01/11 03:45:08;;;;;;;39.65;29.13;;;;;;;-7.11;100.00;103274.63;5015976;28;20068;-81
2024/01/11 03:47:33;;;;;;;40.20;28.42;;;;;;;-7.53;100.00;103211.53;5016062;28;20109;-80
2024/01/11 03:49:59;;;;;;;38.08;26.65;;;;;;;-7.47;100.00;103236.94;5015447;28;20042;-81
2024/01/11 03:52:24;;;;;;;42.22;27.13;;;;;;;-7.24;100.00;103283.22;5014827;28;20057;-81
2024/01/11 03:54:50;;;;;;;40.67;26.45;;;;;;;-7.43;100.00;103251.34;5015845;28;20034;-81
2024/01/11 03:57:16;;;;;;;39.33;26.77;;;;;;;-7.23;100.00;103275.78;5016028;28;20411;-81
2024/01/11 03:59:41;;;;;;;40.97;27.77;;;;;;;-7.27;100.00;103278.06;5015678;28;20033;-81
2024/01/11 04:02:07;;;;;;;38.83;27.17;;;;;;;-7.45;100.00;103259.59;5015818;28;20029;-81
2024/01/11 04:04:33;;;;;;;40.70;28.13;;;;;;;-7.37;100.00;103268.38;5015669;28;20112;-81
2024/01/11 04:07:01;;;;;;;37.63;26.58;;;;;;;-7.37;100.00;103284.28;4997874;28;20119;-81
2024/01/11 04:09:26;;;;;;;40.05;28.27;;;;;;;-7.33;100.00;103293.69;5014187;28;20033;-81
2024/01/11 04:11:52;;;;;;;37.90;25.08;;;;;;;-7.39;100.00;103303.41;5014219;28;20033;-80
2024/01/11 04:14:17;;;;;;;38.15;24.55;;;;;;;-7.41;100.00;103306.63;5015576;28;20018;-80
2024/01/11 04:16:43;;;;;;;39.38;27.15;;;;;;;-7.48;100.00;103295.41;5015506;28;20498;-81
2024/01/11 04:19:09;;;;;;;37.70;27.25;;;;;;;-7.31;100.00;103303.78;5014332;28;20022;-80
2024/01/11 04:21:34;;;;;;;40.30;27.52;;;;;;;-7.32;100.00;103299.56;5015082;28;20018;-80
2024/01/11 04:24:00;;;;;;;38.03;28.08;;;;;;;-7.62;100.00;103264.59;5015257;28;20497;-80
2024/01/11 04:26:26;;;;;;;39.05;27.20;;;;;;;-7.32;100.00;103312.09;5014356;28;20481;-80
2024/01/11 04:28:52;;;;;;;38.13;24.27;;;;;;;-7.33;100.00;103313.75;5015207;28;20053;-80
2024/01/11 04:31:17;;;;;;;36.38;25.42;;;;;;;-7.70;100.00;103253.31;5015185;28;20029;-79
2024/01/11 04:33:45;;;;;;;38.42;26.40;;;;;;;-7.41;100.00;103316.66;5015169;28;20030;-79
2024/01/11 04:36:11;;;;;;;39.00;24.10;;;;;;;-7.37;100.00;103333.63;5014722;28;20021;-79
2024/01/11 04:38:37;;;;;;;38.55;26.52;;;;;;;-7.38;100.00;103317.66;5015117;28;20032;-79
2024/01/11 04:41:09;;;;;;;37.45;26.63;;;;;;;-7.44;100.00;103303.97;5013920;28;20120;-80
2024/01/11 04:43:44;;;;;;;34.85;25.45;;;;;;;-7.51;100.00;103301.13;5015006;28;20045;-79
2024/01/11 04:46:17;;;;;;;37.47;23.73;;;;;;;-7.53;100.00;103306.88;5014963;28;20033;-80
2024/01/11 04:48:42;;;;;;;40.53;26.80;;;;;;;-7.46;100.00;103318.94;5013869;28;20033;-79
2024/01/11 04:51:08;;;;;;;37.58;26.15;;;;;;;-7.76;100.00;103272.22;5013537;28;20482;-80
2024/01/11 04:53:41;;;;;;;36.05;23.80;;;;;;;-7.53;100.00;103329.44;5015010;28;20037;-80
2024/01/11 04:56:08;;;;;;;37.63;24.85;;;;;;;-7.52;100.00;103314.47;4997147;28;20034;-80
2024/01/11 04:58:34;;;;;;;37.28;26.00;;;;;;;-7.56;100.00;103326.78;5013343;28;20030;-80
2024/01/11 05:01:00;;;;;;;37.22;27.30;;;;;;;-7.55;100.00;103328.50;5017915;23;20442;-79
2024/01/11 05:03:25;;;;;;;39.05;27.08;;;;;;;-7.54;100.00;103332.75;4975548;28;20035;-80
2024/01/11 05:05:51;;;;;;;37.95;26.58;;;;;;;-7.64;100.00;103328.03;4993596;28;20523;-80
2024/01/11 05:08:16;;;;;;;36.85;23.27;;;;;;;-7.61;100.00;103338.22;4994931;28;20176;-79
2024/01/11 05:10:42;;;;;;;39.83;26.70;;;;;;;-7.90;100.00;103286.53;4994876;28;20034;-79
2024/01/11 05:13:07;;;;;;;37.70;26.55;;;;;;;-7.70;100.00;103312.66;4994851;28;20038;-80
2024/01/11 05:15:36;;;;;;;36.58;24.77;;;;;;;-7.83;100.00;103309.53;4994895;28;20030;-80
2024/01/11 05:18:01;;;;;;;38.58;25.92;;;;;;;-7.57;100.00;103347.63;4993012;28;20129;-81
2024/01/11 05:20:30;;;;;;;39.38;26.25;;;;;;;-7.56;100.00;103350.25;4994543;28;20108;-80
2024/01/11 05:22:56;;;;;;;36.75;23.50;;;;;;;-7.56;100.00;103352.75;4994656;28;20042;-80
2024/01/11 05:25:21;;;;;;;32.83;22.25;;;;;;;-7.57;100.00;103345.13;4992796;28;20042;-80
2024/01/11 05:27:46;;;;;;;35.88;22.67;;;;;;;-7.55;100.00;103349.44;4994595;28;20040;-80
2024/01/11 05:30:12;;;;;;;36.90;24.95;;;;;;;-7.52;100.00;103354.63;4994307;28;20038;-79
2024/01/11 05:32:37;;;;;;;38.70;25.27;;;;;;;-7.54;100.00;103360.34;4994361;28;20057;-80
2024/01/11 05:35:03;;;;;;;34.88;23.77;;;;;;;-7.88;100.00;103302.53;4992608;28;20479;-79
2024/01/11 05:37:28;;;;;;;34.95;24.25;;;;;;;-8.09;100.00;103279.72;5009591;28;20022;-79
2024/01/11 05:39:56;;;;;;;35.50;24.10;;;;;;;-7.51;100.00;103368.03;4993318;28;20030;-80
2024/01/11 05:42:22;;;;;;;31.83;21.42;;;;;;;-7.87;100.00;103311.78;5009323;28;20474;-79
2024/01/11 05:44:48;;;;;;;35.22;22.08;;;;;;;-7.53;100.00;103355.41;4994093;28;20150;-79
2024/01/11 05:47:13;;;;;;;31.58;20.65;;;;;;;-7.53;100.00;103352.03;4994055;28;20033;-79
2024/01/11 05:49:38;;;;;;;34.40;25.08;;;;;;;-7.78;100.00;103296.34;5009488;28;20018;-79
2024/01/11 05:52:04;;;;;;;35.28;24.33;;;;;;;-7.62;100.00;103342.38;5009218;28;20367;-79
2024/01/11 05:54:29;;;;;;;32.90;23.95;;;;;;;-7.55;100.00;103358.63;5009355;28;20427;-79
2024/01/11 05:56:59;;;;;;;30.90;22.70;;;;;;;-7.55;100.00;103358.63;4993965;28;20022;-80
2024/01/11 05:59:24;;;;;;;33.58;20.58;;;;;;;-7.83;100.00;103324.56;4994005;28;20034;-79
2024/01/11 06:01:51;;;;;;;36.70;24.40;;;;;;;-7.65;100.00;103372.34;5085687;23;20071;-80
2024/01/11 06:04:16;;;;;;;34.28;21.55;;;;;;;-7.67;100.00;103385.56;5015555;28;20071;-80
2024/01/11 06:06:42;;;;;;;29.33;19.77;;;;;;;-7.64;100.00;103390.75;5033203;28;20021;-80
2024/01/11 06:09:08;;;;;;;33.97;24.80;;;;;;;-7.63;100.00;103388.31;5048518;28;20017;-80
2024/01/11 06:11:33;;;;;;;33.88;22.67;;;;;;;-7.61;100.00;103385.91;5048503;28;20041;-80
2024/01/11 06:14:00;;;;;;;32.03;23.88;;;;;;;-7.98;100.00;103316.22;5031359;28;20065;-80
2024/01/11 06:16:25;;;;;;;30.35;21.33;;;;;;;-7.70;100.00;103356.16;5032988;28;20481;-80
2024/01/11 06:18:53;;;;;;;31.30;20.60;;;;;;;-7.81;100.00;103348.09;5128313;23;20098;-80
2024/01/11 06:21:20;;;;;;;32.47;21.98;;;;;;;-7.76;100.00;103349.97;5032534;28;20112;-80
2024/01/11 06:23:46;;;;;;;32.38;21.48;;;;;;;-7.68;100.00;103382.19;5031439;28;20026;-80
2024/01/11 06:26:11;;;;;;;30.15;20.85;;;;;;;-7.64;100.00;103385.75;5032868;28;20372;-80
2024/01/11 06:28:36;;;;;;;31.83;22.15;;;;;;;-7.82;100.00;103348.88;5031412;28;20481;-80
2024/01/11 06:31:03;;;;;;;32.65;21.83;;;;;;;-7.72;100.00;103354.38;5032734;28;20108;-80
2024/01/11 06:33:28;;;;;;;31.25;21.90;;;;;;;-7.65;100.00;103353.91;5031301;28;20095;-80
2024/01/11 06:35:54;;;;;;;33.22;23.38;;;;;;;-8.60;100.00;103213.56;5057493;23;20049;-80
2024/01/11 06:38:22;;;;;;;31.17;20.40;;;;;;;-7.71;100.00;103381.19;5032831;28;20037;-80
2024/01/11 06:40:50;;;;;;;32.08;20.73;;;;;;;-7.75;100.00;103390.19;5032449;28;20037;-80
2024/01/11 06:43:16;;;;;;;31.25;21.08;;;;;;;-8.03;100.00;103346.88;5030630;28;20493;-80
2024/01/11 06:45:44;;;;;;;29.25;19.45;;;;;;;-7.81;100.00;103398.25;5014711;28;20020;-80
2024/01/11 06:48:10;;;;;;;31.30;22.77;;;;;;;-7.75;100.00;103387.69;5032283;28;20112;-80
2024/01/11 06:50:36;;;;;;;30.58;22.88;;;;;;;-7.94;100.00;103375.81;5031203;28;20113;-80
2024/01/11 06:53:01;;;;;;;30.27;21.17;;;;;;;-8.33;100.00;103326.03;5032429;28;20050;-78
2024/01/11 06:55:27;;;;;;;31.30;21.35;;;;;;;-7.93;100.00;103396.72;5032086;28;20060;-79
2024/01/11 06:57:53;;;;;;;32.47;22.50;;;;;;;-7.88;100.00;103402.84;5014650;28;20459;-81
2024/01/11 07:00:19;;;;;;;32.40;22.65;;;;;;;-8.33;100.00;103328.53;5014547;28;20018;-78
2024/01/11 07:02:44;;;;;;;33.78;23.60;;;;;;;-8.27;100.00;103361.44;5014115;28;20033;-79
2024/01/11 07:05:13;;;;;;;33.33;21.98;;;;;;;-7.96;100.00;103417.50;5032437;28;20397;-80
2024/01/11 07:07:39;;;;;;;32.10;20.95;;;;;;;-8.02;100.00;103426.31;5031992;28;20508;-80
2024/01/11 07:10:05;;;;;;;31.23;21.30;;;;;;;-8.26;100.00;103403.25;5032303;28;20022;-81
2024/01/11 07:12:32;;;;;;;32.80;21.38;;;;;;;-8.25;100.00;103420.91;5030876;28;20041;-80
2024/01/11 07:14:57;;;;;;;33.10;23.88;;;;;;;-8.05;100.00;103441.19;5030870;28;20481;-81
2024/01/11 07:17:23;;;;;;;31.38;20.55;;;;;;;-8.14;100.00;103413.97;5032401;28;20033;-80
2024/01/11 07:19:48;;;;;;;32.33;23.48;;;;;;;-8.04;100.00;103443.78;5031116;28;20033;-80
2024/01/11 07:22:14;;;;;;;32.80;22.83;;;;;;;-8.07;100.00;103430.19;5031950;28;20058;-80
2024/01/11 07:24:39;;;;;;;32.75;23.95;;;;;;;-8.03;100.00;103438.00;5031787;28;20037;-80
2024/01/11 07:27:06;;;;;;;33.22;24.38;;;;;;;-7.98;100.00;103444.09;5014472;28;20032;-79
2024/01/11 07:29:31;;;;;;;34.53;22.33;;;;;;;-7.97;100.00;103447.47;5032116;28;20029;-80
2024/01/11 07:31:57;;;;;;;35.40;23.58;;;;;;;-8.11;100.00;103409.97;5031524;28;20036;-80
2024/01/11 07:34:23;;;;;;;32.38;21.52;;;;;;;-8.19;100.00;103393.66;5031938;28;20108;-79
2024/01/11 07:39:24;;;;;;;33.33;22.23;;;;;;;-8.00;100.00;103415.59;5104834;23;20497;-75
2024/01/11 07:41:49;;;;;;;34.83;23.38;;;;;;;-8.05;100.00;103396.94;5047450;28;20057;-74
2024/01/11 07:44:15;;;;;;;33.05;21.42;;;;;;;-7.78;100.00;103444.31;5047159;28;20465;-77
2024/01/11 07:46:40;;;;;;;36.88;22.48;;;;;;;-7.80;100.00;103449.28;5031207;28;20038;-76
2024/01/11 07:49:06;;;;;;;33.65;21.95;;;;;;;-8.04;100.00;103406.19;5031527;28;20025;-77
2024/01/11 07:51:32;;;;;;;33.40;22.90;;;;;;;-7.86;100.00;103442.28;5031724;28;20037;-76
2024/01/11 07:54:02;;;;;;;35.15;22.60;;;;;;;-8.01;100.00;103416.38;5031413;28;20044;-77
2024/01/11 07:56:27;;;;;;;34.05;23.05;;;;;;;-8.33;100.00;103356.97;5031252;28;20366;-79
2024/01/11 07:58:53;;;;;;;34.80;23.35;;;;;;;-7.82;100.00;103429.13;5035337;28;20029;-81
2024/01/11 08:01:18;;;;;;;35.17;25.23;;;;;;;-7.75;100.00;103427.81;5035153;28;20061;-79
2024/01/11 08:03:47;;;;;;;35.05;25.35;;;;;;;-8.02;100.00;103372.03;5050648;28;20976;-80
2024/01/11 08:06:13;;;;;;;36.03;23.92;;;;;;;-8.04;100.00;103365.22;5034073;28;20029;-79
2024/01/11 08:08:41;;;;;;;37.05;26.23;;;;;;;-7.64;100.00;103406.69;5035059;28;20017;-77
2024/01/11 08:11:09;;;;;;;35.15;23.25;;;;;;;-7.61;100.00;103405.97;5035111;28;20025;-78
2024/01/11 08:13:37;;;;;;;36.92;25.70;;;;;;;-7.70;100.00;103392.94;5034992;28;20028;-79
2024/01/11 08:16:04;;;;;;;38.05;24.73;;;;;;;-7.50;100.00;103409.91;5050202;28;20477;-79
2024/01/11 08:18:31;;;;;;;34.88;24.20;;;;;;;-7.43;100.00;103403.56;5035050;28;20030;-79
2024/01/11 08:37:56;;;;;;;32.63;22.25;;;;;;;-7.18;100.00;103411.56;4995895;28;20449;-80
2024/01/11 08:43:57;;;;;;;33.55;24.08;;;;;;;-7.08;100.00;103411.28;5014461;28;19923;-79
2024/01/11 08:47:27;;;;;;;;;;;;;;;;;;;;;
2024/01/11 08:50:26;;;;;;;37.80;23.48;;;;;;;-6.94;100.00;103432.03;4934199;29;20485;-78
2024/01/11 08:53:11;;;;;;;34.65;24.13;;;;;;;-6.90;100.00;103436.44;4934687;29;20118;-79
2024/01/11 08:55:47;;;;;;;38.42;25.92;;;;;;;-7.39;100.00;103356.09;4934842;29;20035;-79
2024/01/11 08:58:12;;;;;;;40.58;27.50;;;;;;;-6.93;100.00;103416.19;4935189;29;20038;-79
2024/01/11 09:00:38;;;;;;;39.60;27.77;;;;;;;-7.61;100.00;103298.94;4934859;29;20035;-79
2024/01/11 09:03:04;;;;;;;37.55;28.13;;;;;;;-7.27;100.00;103349.22;4918839;29;20499;-79
2024/01/11 09:06:40;;;;;;;37.70;25.70;;;;;;;-6.68;100.00;103440.91;4934677;29;20032;-79
2024/01/11 09:09:49;;;;;;;38.88;25.92;;;;;;;-7.58;100.00;103284.03;4895467;29;20043;-77
2024/01/11 09:12:49;;;;;;;;;;;;;;;;;;;;;
2024/01/11 09:15:36;;;;;;;40.03;28.42;;;;;;;-6.48;100.00;103442.75;4878045;29;20037;-79
2024/01/11 09:21:53;;;;;;;37.38;25.02;;;;;;;-7.19;100.00;103324.47;4914479;29;20035;-79
2024/01/11 09:24:22;;;;;;;42.20;29.38;;;;;;;-6.73;100.00;103397.94;4915356;29;20091;-77
2024/01/11 09:26:51;;;;;;;39.83;27.58;;;;;;;-6.64;100.00;103407.59;5000362;23;20092;-78
2024/01/11 09:29:19;;;;;;;39.08;28.48;;;;;;;-6.13;100.00;103482.16;5013713;28;20026;-80
2024/01/11 09:31:44;;;;;;;39.08;28.55;;;;;;;-6.09;100.00;103463.06;5013795;28;20062;-80
2024/01/11 09:34:09;;;;;;;39.85;29.20;;;;;;;-6.00;100.00;103475.19;4995865;28;20061;-81
2024/01/11 09:36:38;;;;;;;40.35;28.05;;;;;;;-5.94;100.00;103478.00;5013688;28;20025;-81
2024/01/11 09:39:05;;;;;;;40.88;28.83;;;;;;;-5.89;100.00;103487.47;4994968;28;20113;-78
2024/01/11 09:41:31;;;;;;;40.50;28.88;;;;;;;-5.82;100.00;103493.63;5014288;28;20391;-82
2024/01/11 09:44:06;;;;;;;41.67;28.70;;;;;;;-5.81;100.00;103495.34;5013551;28;20026;-77
2024/01/11 09:46:32;;;;;;;37.67;28.85;;;;;;;-5.94;100.00;103471.31;5013555;28;20129;-81
2024/01/11 09:48:59;;;;;;;38.15;29.42;;;;;;;-5.64;100.00;103504.56;5009398;28;20524;-79
2024/01/11 09:51:26;;;;;;;39.25;30.30;;;;;;;-5.79;100.00;103458.56;4980255;28;20045;-81
2024/01/11 09:53:54;;;;;;;39.40;29.38;;;;;;;-5.53;100.00;103500.03;4995604;28;20026;-80
2024/01/11 09:56:20;;;;;;;40.53;29.30;;;;;;;-5.41;100.00;103505.63;4995769;28;20030;-83
2024/01/11 09:58:50;;;;;;;43.05;30.95;;;;;;;-5.58;100.00;103463.72;5011812;28;20034;-80
2024/01/11 10:01:15;;;;;;;40.55;30.45;;;;;;;-5.30;100.00;103498.56;5013427;28;20034;-82
2024/01/11 10:03:41;;;;;;;42.13;31.13;;;;;;;-5.33;100.00;103481.66;5011490;28;20112;-78
2024/01/11 10:06:08;;;;;;;41.53;30.45;;;;;;;-5.60;100.00;103441.00;5013411;28;20026;-82
2024/01/11 10:08:33;;;;;;;40.08;28.75;;;;;;;-5.16;100.00;103504.22;5013294;28;20033;-81
2024/01/11 10:10:59;;;;;;;40.72;28.70;;;;;;;-5.39;100.00;103471.31;5011622;28;20052;-81
2024/01/11 10:13:32;;;;;;;41.33;30.23;;;;;;;-5.29;100.00;103470.06;5012850;28;20433;-77
2024/01/11 10:16:08;;;;;;;42.75;28.70;;;;;;;-4.99;100.00;103509.22;4995444;28;20022;-82
2024/01/11 10:18:33;;;;;;;38.65;28.38;;;;;;;-5.13;100.00;103476.63;5013252;28;20080;-82
2024/01/11 10:20:59;;;;;;;40.15;29.65;;;;;;;-4.86;100.00;103515.63;5012565;28;20034;-82
2024/01/11 10:23:24;;;;;;;39.97;29.42;;;;;;;-4.80;100.00;103525.13;5012898;28;20037;-76
2024/01/11 10:25:50;;;;;;;41.20;28.15;;;;;;;-4.77;100.00;103531.16;4994516;28;20137;-77
2024/01/11 10:28:15;;;;;;;43.15;30.50;;;;;;;-4.71;100.00;103523.03;5012607;28;20184;-76
2024/01/11 10:30:41;;;;;;;40.75;29.02;;;;;;;-4.64;100.00;103532.56;5012459;28;20121;-78
2024/01/11 10:33:07;;;;;;;41.03;29.48;;;;;;;-4.80;100.00;103487.34;4995052;28;20060;-81
2024/01/11 10:35:58;;;;;;;41.03;29.13;;;;;;;-5.12;100.00;103412.84;5189103;23;20128;-81
2024/01/11 10:38:48;;;;;;;40.10;29.38;;;;;;;-5.72;100.00;103312.06;4971180;28;20419;-81
2024/01/11 10:41:57;;;;;;;41.83;30.40;;;;;;;-4.37;100.00;103520.25;4971293;28;20042;-85
2024/01/11 10:48:01;;;;;;;39.92;29.88;;;;;;;-4.66;100.00;103435.81;4952369;28;20103;-84
2024/01/11 10:50:39;;;;;;;40.30;28.88;;;;;;;-4.28;100.00;103489.50;4952105;28;20046;-83
2024/01/11 10:53:20;;;;;;;46.58;28.90;;;;;;;-4.26;100.00;103467.72;4952165;29;20046;-82
2024/01/11 10:55:47;;;;;;;40.70;28.25;;;;;;;-4.31;100.00;103447.38;4951602;28;20035;-84
2024/01/11 10:58:15;;;;;;;43.28;27.95;;;;;;;-3.93;100.00;103498.47;4951951;29;20080;-85
2024/01/11 11:00:40;;;;;;;39.50;28.45;;;;;;;-3.89;100.00;103503.72;4952304;29;20381;-79
2024/01/11 11:03:08;;;;;;;38.03;26.05;;;;;;;-4.20;100.00;103457.88;4950598;28;20046;-78
2024/01/11 11:05:38;;;;;;;38.47;26.60;;;;;;;-3.80;100.00;103514.19;4936683;29;20527;-82
2024/01/11 11:08:05;;;;;;;39.35;27.85;;;;;;;-3.80;100.00;103501.56;4952035;28;20050;-82
2024/01/11 11:10:34;;;;;;;40.33;28.35;;;;;;;-3.69;100.00;103514.59;4951784;29;20396;-80
2024/01/11 11:13:00;;;;;;;37.65;27.23;;;;;;;-3.63;100.00;103524.09;4951808;28;20064;-79
2024/01/11 11:15:28;;;;;;;41.50;28.45;;;;;;;-3.78;100.00;103507.53;4951845;28;20452;-79
2024/01/11 11:17:53;;;;;;;39.70;27.42;;;;;;;-3.62;100.00;103530.84;4951790;28;20154;-77
2024/01/11 11:20:19;;;;;;;35.08;24.70;;;;;;;-3.57;100.00;103530.22;4950734;29;20059;-77
2024/01/11 11:23:02;;;;;;;38.08;24.42;;;;;;;-3.47;98.96;103533.97;4936160;29;20093;-78
2024/01/11 11:25:29;;;;;;;39.08;26.15;;;;;;;-3.61;98.51;103487.97;4993658;28;20022;-77
2024/01/11 11:27:55;;;;;;;37.92;25.83;;;;;;;-3.32;97.45;103534.56;4994219;28;20099;-77
2024/01/11 11:30:20;;;;;;;38.40;27.00;;;;;;;-3.41;98.10;103505.56;5012086;28;20541;-77
2024/01/11 11:32:46;;;;;;;36.75;24.63;;;;;;;-3.50;97.48;103494.31;5099484;23;20041;-77
2024/01/11 11:35:12;;;;;;;38.83;24.35;;;;;;;-3.21;96.28;103538.34;4997632;28;20410;-81
2024/01/11 11:37:40;;;;;;;41.90;26.65;;;;;;;-3.34;97.61;103489.81;5015730;28;20033;-79
2024/01/11 11:40:07;;;;;;;39.28;26.65;;;;;;;-3.08;97.40;103531.22;5016067;28;20382;-75
2024/01/11 11:42:37;;;;;;;39.22;25.65;;;;;;;-3.20;95.68;103509.72;4998032;28;20437;-76